Time;durP1;ratioP1;P1;durP2;ratioP2;P2;SDS_P1;SDS_P2;PMS_P1;PMS_P2;Temp;Humidity;BMP_temperature;BMP_pressure;BME280_temperature;BME280_humidity;BME280_pressure;Samples;Min_cycle;Max_cycle;Signal;HPM_P1;HPM_P2
2022/07/06 00:00:53;;;;;;;;;;;;;;;;;;2202488;67;1147;-65
2022/07/06 00:03:26;;;;;;;;;;;;;;;;;;2202038;59;1255;-66
2022/07/06 00:06:00;;;;;;;;;;;;;;;;;;2203031;67;1285;-66
2022/07/06 00:08:36;;;;;;;;;;;;;;;;;;2201870;67;1152;-65
2022/07/06 00:11:09;;;;;;;;;;;;;;;;;;2202862;59;1503;-66
2022/07/06 00:13:42;;;;;;;;;;;;;;;;;;2201837;67;1180;-66
2022/07/06 00:16:15;;;;;;;;;;;;;;;;;;2202362;67;1264;-66
2022/07/06 00:18:49;;;;;;;;;;;;;;;;;;2202057;67;1930;-66
2022/07/06 00:21:22;;;;;;;;;;;;;;;;;;2202143;67;1141;-66
2022/07/06 00:23:58;;;;;;;;;;;;;;;;;;2202256;67;1152;-65
2022/07/06 00:26:31;;;;;;;;;;;;;;;;;;2203307;59;1300;-66
2022/07/06 00:29:04;;;;;;;;;;;;;;;;;;2202412;67;1200;-66
2022/07/06 00:31:38;;;;;;;;;;;;;;;;;;2202229;59;1932;-66
2022/07/06 01:43:34;;;;;;;;;;;;;;;;;;2300742;53;1664;-65
2022/07/06 01:46:07;;;;;;;;;;;;;;;;;;2207430;67;1247;-65
2022/07/06 01:48:41;;;;;;;;;;;;;;;;;;2211891;67;1048;-65
2022/07/06 01:51:14;;;;;;;;;;;;;;;;;;2211604;67;1293;-65
2022/07/06 01:53:47;;;;;;;;;;;;;;;;;;2205719;67;1147;-65
2022/07/06 01:56:21;;;;;;;;;;;;;;;;;;2205345;67;1296;-64
2022/07/06 03:10:36;;;;;;;;;;;;;;;;;;2282199;53;1733;-75
2022/07/06 03:13:10;;;;;;;;;;;;;;;;;;2205329;59;1173;-75
2022/07/06 03:15:43;;;;;;;;;;;;;;;;;;2206151;67;1053;-75
2022/07/06 03:18:16;;;;;;;;;;;;;;;;;;2206508;67;1917;-75
2022/07/06 03:20:49;;;;;;;;;;;;;;;;;;2206746;59;1339;-75
2022/07/06 03:23:22;;;;;;;;;;;;;;;;;;2207670;67;1237;-75
2022/07/06 03:25:58;;;;;;;;;;;;;;;;;;2206757;59;1323;-75
2022/07/06 03:28:31;;;;;;;;;;;;;;;;;;2205916;67;1305;-75
2022/07/06 03:31:04;;;;;;;;;;;;;;;;;;2207783;59;2006;-75
2022/07/06 03:33:37;;;;;;;;;;;;;;;;;;2205463;67;1156;-75
2022/07/06 03:36:11;;;;;;;;;;;;;;;;;;2206412;67;1221;-75
2022/07/06 03:38:44;;;;;;;;;;;;;;;;;;2205950;59;2000;-75
2022/07/06 03:41:20;;;;;;;;;;;;;;;;;;2207265;67;1261;-75
2022/07/06 03:43:53;;;;;;;;;;;;;;;;;;2207670;67;1169;-75
2022/07/06 03:46:26;;;;;;;;;;;;;;;;;;2205910;67;1260;-75
2022/07/06 03:48:59;;;;;;;;;;;;;;;;;;2206832;59;1223;-75
2022/07/06 03:51:32;;;;;;;;;;;;;;;;;;2207335;67;1265;-75
2022/07/06 03:54:05;;;;;;;;;;;;;;;;;;2206565;67;1171;-75
2022/07/06 03:56:41;;;;;;;;;;;;;;;;;;2206945;67;1112;-75
2022/07/06 03:59:14;;;;;;;;;;;;;;;;;;2205390;67;1913;-75
2022/07/06 04:01:47;;;;;;;;;;;;;;;;;;2206465;67;1156;-75
2022/07/06 04:04:21;;;;;;;;;;;;;;;;;;2206410;59;1313;-75
2022/07/06 04:06:54;;;;;;;;;;;;;;;;;;2203116;67;1164;-75
2022/07/06 04:09:27;;;;;;;;;;;;;;;;;;2206034;59;1270;-75
2022/07/06 04:12:03;;;;;;;;;;;;;;;;;;2205945;59;1272;-75
2022/07/06 04:14:36;;;;;;;;;;;;;;;;;;2206881;59;1081;-75
2022/07/06 04:19:54;;;;;;;;;;;;;;;;;;2206585;67;1903;-75
2022/07/06 04:22:27;;;;;;;;;;;;;;;;;;2207234;67;1123;-75
2022/07/06 04:25:00;;;;;;;;;;;;;;;;;;2206872;67;1313;-75
2022/07/06 04:27:36;;;;;;;;;;;;;;;;;;2207235;59;1537;-75
2022/07/06 04:30:10;;;;;;;;;;;;;;;;;;2206577;59;2017;-75
2022/07/06 04:32:43;;;;;;;;;;;;;;;;;;2208105;67;1006;-75
2022/07/06 04:35:16;;;;;;;;;;;;;;;;;;2208010;67;1109;-75
2022/07/06 04:37:50;;;;;;;;;;;;;;;;;;2207275;67;1155;-75
2022/07/06 04:40:23;;;;;;;;;;;;;;;;;;2206719;67;1991;-75
2022/07/06 04:42:59;;;;;;;;;;;;;;;;;;2208075;59;2346;-75
2022/07/06 04:45:32;;;;;;;;;;;;;;;;;;2208279;59;1140;-75
2022/07/06 04:48:06;;;;;;;;;;;;;;;;;;2205997;59;1175;-75
2022/07/06 04:50:39;;;;;;;;;;;;;;;;;;2208132;67;1240;-75
2022/07/06 04:53:12;;;;;;;;;;;;;;;;;;2203120;67;1994;-75
2022/07/06 04:55:45;;;;;;;;;;;;;;;;;;2208147;67;1085;-75
2022/07/06 04:58:21;;;;;;;;;;;;;;;;;;2207050;67;1199;-75
2022/07/06 05:00:54;;;;;;;;;;;;;;;;;;2208308;67;1922;-75
2022/07/06 05:03:27;;;;;;;;;;;;;;;;;;2207653;67;1192;-75
2022/07/06 05:06:00;;;;;;;;;;;;;;;;;;2207902;59;1205;-75
2022/07/06 05:08:33;;;;;;;;;;;;;;;;;;2202716;67;1906;-75
2022/07/06 05:11:06;;;;;;;;;;;;;;;;;;2206201;59;1348;-75
2022/07/06 05:13:42;;;;;;;;;;;;;;;;;;2208076;59;2198;-75
2022/07/06 05:16:15;;;;;;;;;;;;;;;;;;2207620;59;1185;-75
2022/07/06 05:18:48;;;;;;;;;;;;;;;;;;2207006;67;1988;-75
2022/07/06 05:21:22;;;;;;;;;;;;;;;;;;2208510;59;1356;-75
2022/07/06 05:23:55;;;;;;;;;;;;;;;;;;2206798;67;1300;-75
2022/07/06 05:26:28;;;;;;;;;;;;;;;;;;2205893;59;1283;-75
2022/07/06 05:29:04;;;;;;;;;;;;;;;;;;2207865;59;1228;-75
2022/07/06 05:31:37;;;;;;;;;;;;;;;;;;2206602;59;2053;-75
2022/07/06 05:34:10;;;;;;;;;;;;;;;;;;2207319;67;1281;-75
2022/07/06 05:36:43;;;;;;;;;;;;;;;;;;2207476;67;1297;-75
2022/07/06 05:39:19;;;;;;;;;;;;;;;;;;2208120;59;1912;-75
2022/07/06 05:41:52;;;;;;;;;;;;;;;;;;2202921;59;2076;-75
2022/07/06 05:44:28;;;;;;;;;;;;;;;;;;2206404;67;1231;-75
2022/07/06 05:52:35;;;;;;;;;;;;;;;;;;2204469;67;1242;-75
2022/07/06 05:55:09;;;;;;;;;;;;;;;;;;2207081;67;1285;-75
2022/07/06 05:57:42;;;;;;;;;;;;;;;;;;2207242;67;1240;-75
2022/07/06 06:00:18;;;;;;;;;;;;;;;;;;2207101;67;1924;-75
2022/07/06 06:02:52;;;;;;;;;;;;;;;;;;2208236;67;1081;-75
2022/07/06 06:05:25;;;;;;;;;;;;;;;;;;2203891;67;1430;-75
2022/07/06 06:07:58;;;;;;;;;;;;;;;;;;2206987;59;1176;-75
2022/07/06 06:10:31;;;;;;;;;;;;;;;;;;2206144;59;1283;-75
2022/07/06 06:13:04;;;;;;;;;;;;;;;;;;2208018;59;1251;-75
2022/07/06 06:15:40;;;;;;;;;;;;;;;;;;2208940;67;1292;-75
2022/07/06 06:18:16;;;;;;;;;;;;;;;;;;2203840;67;1187;-76
2022/07/06 06:20:49;;;;;;;;;;;;;;;;;;2206054;67;1998;-75
2022/07/06 06:23:22;;;;;;;;;;;;;;;;;;2208709;59;1510;-76
2022/07/06 06:25:56;;;;;;;;;;;;;;;;;;2206799;59;1223;-76
2022/07/06 06:28:29;;;;;;;;;;;;;;;;;;2206891;67;1262;-76
2022/07/06 06:31:05;;;;;;;;;;;;;;;;;;2205976;59;2032;-76
2022/07/06 06:33:38;;;;;;;;;;;;;;;;;;2207534;67;1328;-75
2022/07/06 06:36:12;;;;;;;;;;;;;;;;;;2206531;67;1174;-75
2022/07/06 06:38:45;;;;;;;;;;;;;;;;;;2207460;59;1320;-75
2022/07/06 06:41:20;;;;;;;;;;;;;;;;;;2208163;59;1996;-75
2022/07/06 06:43:53;;;;;;;;;;;;;;;;;;2207914;67;1080;-75
2022/07/06 06:46:29;;;;;;;;;;;;;;;;;;2207862;59;1324;-76
2022/07/06 06:49:02;;;;;;;;;;;;;;;;;;2206828;67;1276;-75
2022/07/06 06:51:37;;;;;;;;;;;;;;;;;;2206683;67;1080;-75
2022/07/06 06:54:10;;;;;;;;;;;;;;;;;;2207465;59;1155;-75
2022/07/06 06:56:43;;;;;;;;;;;;;;;;;;2207057;67;1248;-75
2022/07/06 06:59:16;;;;;;;;;;;;;;;;;;2205392;67;1220;-75
2022/07/06 07:01:52;;;;;;;;;;;;;;;;;;2206158;67;1936;-75
2022/07/06 07:04:26;;;;;;;;;;;;;;;;;;2207348;67;1223;-76
2022/07/06 07:06:59;;;;;;;;;;;;;;;;;;2206762;59;1207;-75
2022/07/06 07:09:32;;;;;;;;;;;;;;;;;;2207137;59;1413;-75
2022/07/06 07:12:06;;;;;;;;;;;;;;;;;;2206425;59;1332;-75
2022/07/06 07:14:39;;;;;;;;;;;;;;;;;;2208397;67;1242;-75
2022/07/06 07:17:15;;;;;;;;;;;;;;;;;;2206272;59;1097;-75
2022/07/06 07:19:48;;;;;;;;;;;;;;;;;;2207438;67;1929;-75
2022/07/06 07:22:21;;;;;;;;;;;;;;;;;;2206579;67;1119;-75
2022/07/06 07:24:54;;;;;;;;;;;;;;;;;;2207497;67;1267;-76
2022/07/06 07:27:28;;;;;;;;;;;;;;;;;;2204859;67;1244;-75
2022/07/06 07:30:01;;;;;;;;;;;;;;;;;;2208012;67;1185;-74
2022/07/06 07:32:37;;;;;;;;;;;;;;;;;;2206548;59;2332;-75
2022/07/06 07:35:10;;;;;;;;;;;;;;;;;;2207899;59;1254;-75
2022/07/06 07:37:43;;;;;;;;;;;;;;;;;;2208252;67;1191;-75
2022/07/06 07:40:16;;;;;;;;;;;;;;;;;;2206723;67;1927;-75
2022/07/06 07:42:49;;;;;;;;;;;;;;;;;;2208142;67;1317;-75
2022/07/06 07:45:23;;;;;;;;;;;;;;;;;;2207942;59;1278;-74
2022/07/06 07:47:58;;;;;;;;;;;;;;;;;;2206786;67;1220;-75
2022/07/06 07:50:32;;;;;;;;;;;;;;;;;;2206033;59;1787;-75
2022/07/06 07:53:05;;;;;;;;;;;;;;;;;;2206442;67;1175;-75
2022/07/06 07:55:38;;;;;;;;;;;;;;;;;;2206876;67;1167;-75
2022/07/06 07:58:11;;;;;;;;;;;;;;;;;;2207480;67;1218;-75
2022/07/06 08:00:44;;;;;;;;;;;;;;;;;;2207383;67;1925;-75
2022/07/06 08:03:20;;;;;;;;;;;;;;;;;;2206750;59;1213;-75
2022/07/06 08:05:54;;;;;;;;;;;;;;;;;;2205384;67;1184;-75
2022/07/06 08:08:27;;;;;;;;;;;;;;;;;;2206056;59;1129;-75
2022/07/06 08:11:00;;;;;;;;;;;;;;;;;;2207702;59;1363;-75
2022/07/06 08:13:33;;;;;;;;;;;;;;;;;;2207582;67;1145;-76
2022/07/06 08:16:08;;;;;;;;;;;;;;;;;;2206366;67;1133;-75
2022/07/06 08:18:43;;;;;;;;;;;;;;;;;;2206867;67;1117;-75
2022/07/06 08:21:17;;;;;;;;;;;;;;;;;;2208194;67;1940;-75
2022/07/06 08:23:50;;;;;;;;;;;;;;;;;;2207021;59;1018;-75
2022/07/06 08:26:24;;;;;;;;;;;;;;;;;;2206266;59;1283;-75
2022/07/06 08:28:57;;;;;;;;;;;;;;;;;;2207322;67;1136;-75
2022/07/06 08:31:31;;;;;;;;;;;;;;;;;;2206159;59;1982;-75
2022/07/06 08:34:06;;;;;;;;;;;;;;;;;;2206246;60;1271;-75
2022/07/06 08:36:40;;;;;;;;;;;;;;;;;;2206350;67;1037;-75
2022/07/06 08:39:13;;;;;;;;;;;;;;;;;;2206195;67;1258;-75
2022/07/06 08:41:47;;;;;;;;;;;;;;;;;;2207352;59;2098;-75
2022/07/06 08:44:20;;;;;;;;;;;;;;;;;;2207473;59;1206;-76
2022/07/06 08:46:54;;;;;;;;;;;;;;;;;;2206674;59;1108;-76
2022/07/06 08:49:31;;;;;;;;;;;;;;;;;;2206665;59;1362;-75
2022/07/06 08:52:05;;;;;;;;;;;;;;;;;;2206552;59;1450;-75
2022/07/06 08:54:40;;;;;;;;;;;;;;;;;;2207429;67;1159;-75
2022/07/06 08:57:13;;;;;;;;;;;;;;;;;;2205929;67;1184;-75
2022/07/06 08:59:46;;;;;;;;;;;;;;;;;;2206020;67;1308;-75
2022/07/06 09:02:20;;;;;;;;;;;;;;;;;;2206595;67;1947;-75
2022/07/06 09:04:57;;;;;;;;;;;;;;;;;;2207743;67;1029;-75
2022/07/06 09:07:31;;;;;;;;;;;;;;;;;;2206117;67;1190;-75
2022/07/06 09:12:44;;;;;;;;;;;;;;;;;;2312521;53;1918;-68
2022/07/06 09:15:17;;;;;;;;;;;;;;;;;;2210041;67;1261;-67
2022/07/06 09:17:50;;;;;;;;;;;;;;;;;;2208526;67;1173;-67
2022/07/06 09:20:27;;;;;;;;;;;;;;;;;;2206115;67;1935;-67
2022/07/06 09:23:01;;;;;;;;;;;;;;;;;;2206130;67;1122;-65
2022/07/06 09:25:35;;;;;;;;;;;;;;;;;;2205879;59;1292;-67
2022/07/06 09:28:08;;;;;;;;;;;;;;;;;;2206403;67;1222;-66
2022/07/06 09:30:41;;;;;;;;;;;;;;;;;;2205330;67;2166;-66
2022/07/06 09:33:19;;;;;;;;;;;;;;;;;;2205935;67;1156;-66
2022/07/06 09:36:00;;;;;;;;;;;;;;;;;;2205968;67;1009;-68
2022/07/06 09:38:33;;;;;;;;;;;;;;;;;;2206009;59;1375;-66
2022/07/06 09:41:07;;;;;;;;;;;;;;;;;;2205947;67;2113;-67
2022/07/06 09:43:40;;;;;;;;;;;;;;;;;;2205934;67;1191;-68
2022/07/06 09:46:13;;;;;;;;;;;;;;;;;;2205687;60;1243;-67
2022/07/06 09:48:47;;;;;;;;;;;;;;;;;;2205972;67;1198;-67
2022/07/06 09:51:23;;;;;;;;;;;;;;;;;;2205759;67;1214;-66
2022/07/06 09:54:00;;;;;;;;;;;;;;;;;;2205851;67;1099;-67
2022/07/06 09:56:38;;;;;;;;;;;;;;;;;;2205735;67;1062;-67
2022/07/06 09:59:12;;;;;;;;;;;;;;;;;;2204838;67;1264;-67
2022/07/06 10:01:45;;;;;;;;;;;;;;;;;;2205855;67;1945;-67
2022/07/06 10:04:20;;;;;;;;;;;;;;;;;;2205801;67;1269;-68
2022/07/06 10:06:56;;;;;;;;;;;;;;;;;;2206709;67;1164;-67
2022/07/06 10:09:30;;;;;;;;;;;;;;;;;;2206062;67;1135;-68
2022/07/06 10:12:04;;;;;;;;;;;;;;;;;;2206414;59;1377;-67
2022/07/06 10:14:37;;;;;;;;;;;;;;;;;;2205135;67;1187;-67
2022/07/06 10:17:11;;;;;;;;;;;;;;;;;;2206619;67;1207;-68
2022/07/06 10:19:45;;;;;;;;;;;;;;;;;;2205887;67;1122;-67
2022/07/06 10:22:21;;;;;;;;;;;;;;;;;;2205772;67;1988;-67
2022/07/06 10:24:54;;;;;;;;;;;;;;;;;;2206169;60;1120;-68
2022/07/06 10:27:28;;;;;;;;;;;;;;;;;;2206244;59;1409;-68
2022/07/06 10:30:01;;;;;;;;;;;;;;;;;;2206137;67;1271;-67
2022/07/06 10:32:34;;;;;;;;;;;;;;;;;;2205790;59;2337;-68
2022/07/06 10:35:08;;;;;;;;;;;;;;;;;;2205261;67;1190;-68
2022/07/06 10:37:44;;;;;;;;;;;;;;;;;;2206495;67;1203;-66
2022/07/06 10:43:06;;;;;;;;;;;;;;;;;;2206226;67;1950;-67
2022/07/06 10:45:55;;;;;;;;;;;;;;;;;;2205796;67;1148;-68
2022/07/06 10:48:36;;;;;;;;;;;;;;;;;;2205797;67;1283;-67
2022/07/06 10:51:10;;;;;;;;;;;;;;;;;;2206382;67;1203;-68
2022/07/06 10:53:45;;;;;;;;;;;;;;;;;;2205909;67;1126;-67
2022/07/06 10:56:18;;;;;;;;;;;;;;;;;;2206218;67;1218;-66
2022/07/06 10:58:53;;;;;;;;;;;;;;;;;;2206139;67;1180;-68
2022/07/06 11:01:30;;;;;;;;;;;;;;;;;;2205958;67;1940;-68
2022/07/06 11:04:10;;;;;;;;;;;;;;;;;;2205390;67;1350;-66
2022/07/06 11:06:44;;;;;;;;;;;;;;;;;;2205759;67;1233;-67
2022/07/06 11:09:20;;;;;;;;;;;;;;;;;;2206324;67;1179;-68
2022/07/06 11:11:53;;;;;;;;;;;;;;;;;;2205942;59;1418;-68
2022/07/06 11:14:29;;;;;;;;;;;;;;;;;;2205421;67;1211;-68
2022/07/06 11:17:04;;;;;;;;;;;;;;;;;;2206521;67;1255;-66
2022/07/06 11:19:37;;;;;;;;;;;;;;;;;;2205858;67;1192;-68
2022/07/06 11:22:11;;;;;;;;;;;;;;;;;;2205745;67;1912;-67
2022/07/06 11:24:48;;;;;;;;;;;;;;;;;;2205423;59;2385;-68
2022/07/06 11:27:24;;;;;;;;;;;;;;;;;;2205697;59;1740;-65
2022/07/06 11:29:58;;;;;;;;;;;;;;;;;;2205712;67;1147;-67
2022/07/06 11:32:31;;;;;;;;;;;;;;;;;;2205907;59;1994;-67
2022/07/06 11:35:04;;;;;;;;;;;;;;;;;;2205120;59;2516;-68
2022/07/06 11:37:38;;;;;;;;;;;;;;;;;;2204346;59;2439;-67
2022/07/06 11:40:14;;;;;;;;;;;;;;;;;;2204455;59;1782;-67
2022/07/06 11:42:55;;;;;;;;;;;;;;;;;;2205271;59;1974;-68
2022/07/06 11:45:28;;;;;;;;;;;;;;;;;;2205087;59;1534;-66
2022/07/06 11:48:12;;;;;;;;;;;;;;;;;;2204990;59;2399;-67
2022/07/06 11:50:45;;;;;;;;;;;;;;;;;;2204499;59;2541;-68
2022/07/06 11:53:18;;;;;;;;;;;;;;;;;;2205247;59;2383;-68
2022/07/06 11:55:54;;;;;;;;;;;;;;;;;;2204697;59;2520;-67
2022/07/06 11:58:27;;;;;;;;;;;;;;;;;;2205684;59;1558;-68
2022/07/06 12:01:07;;;;;;;;;;;;;;;;;;2205376;67;1292;-67
2022/07/06 12:03:40;;;;;;;;;;;;;;;;;;2205850;59;2347;-67
2022/07/06 12:06:18;;;;;;;;;;;;;;;;;;2205483;59;1655;-67
2022/07/06 12:08:52;;;;;;;;;;;;;;;;;;2205946;67;1239;-67
2022/07/06 12:11:29;;;;;;;;;;;;;;;;;;2205935;59;1335;-66
2022/07/06 12:14:03;;;;;;;;;;;;;;;;;;2205120;59;2391;-65
2022/07/06 12:16:39;;;;;;;;;;;;;;;;;;2205512;59;2301;-67
2022/07/06 12:19:12;;;;;;;;;;;;;;;;;;2205390;59;1661;-68
2022/07/06 12:21:46;;;;;;;;;;;;;;;;;;2205246;67;1992;-68
2022/07/06 12:24:21;;;;;;;;;;;;;;;;;;2205607;59;2528;-67
2022/07/06 12:26:57;;;;;;;;;;;;;;;;;;2204931;59;1748;-67
2022/07/06 12:29:30;;;;;;;;;;;;;;;;;;2205135;59;1704;-67
2022/07/06 12:32:05;;;;;;;;;;;;;;;;;;2204809;59;1895;-68
2022/07/06 12:34:38;;;;;;;;;;;;;;;;;;2205217;59;2507;-67
2022/07/06 12:37:12;;;;;;;;;;;;;;;;;;2206024;67;1209;-66
2022/07/06 12:39:46;;;;;;;;;;;;;;;;;;2206325;67;1282;-67
2022/07/06 12:42:22;;;;;;;;;;;;;;;;;;2206481;59;2244;-66
2022/07/06 12:44:55;;;;;;;;;;;;;;;;;;2206592;59;1549;-66
2022/07/06 12:47:28;;;;;;;;;;;;;;;;;;2206370;59;1665;-67
2022/07/06 12:50:10;;;;;;;;;;;;;;;;;;2205842;67;1240;-65
2022/07/06 12:52:43;;;;;;;;;;;;;;;;;;2205965;67;1240;-66
2022/07/06 12:55:16;;;;;;;;;;;;;;;;;;2205676;59;1682;-67
2022/07/06 12:57:52;;;;;;;;;;;;;;;;;;2205060;59;2338;-67
2022/07/06 13:00:25;;;;;;;;;;;;;;;;;;2206215;59;2389;-68
2022/07/06 13:02:59;;;;;;;;;;;;;;;;;;2205181;59;1925;-68
2022/07/06 13:05:32;;;;;;;;;;;;;;;;;;2205308;59;2418;-67
2022/07/06 13:08:05;;;;;;;;;;;;;;;;;;2205877;59;1695;-67
2022/07/06 13:10:41;;;;;;;;;;;;;;;;;;2206466;59;1357;-67
2022/07/06 13:13:17;;;;;;;;;;;;;;;;;;2206927;59;1290;-67
2022/07/06 13:15:50;;;;;;;;;;;;;;;;;;2204986;59;2529;-66
2022/07/06 13:18:23;;;;;;;;;;;;;;;;;;2205906;59;1875;-65
2022/07/06 13:20:56;;;;;;;;;;;;;;;;;;2205277;59;1777;-64
2022/07/06 13:23:29;;;;;;;;;;;;;;;;;;2205097;59;2057;-65
2022/07/06 13:26:03;;;;;;;;;;;;;;;;;;2205458;59;1979;-67
2022/07/06 13:28:38;;;;;;;;;;;;;;;;;;2205792;59;1877;-65
2022/07/06 13:31:12;;;;;;;;;;;;;;;;;;2205328;59;1820;-67
2022/07/06 13:33:45;;;;;;;;;;;;;;;;;;2205732;59;2229;-67
2022/07/06 13:36:18;;;;;;;;;;;;;;;;;;2205321;59;1843;-67
2022/07/06 13:38:51;;;;;;;;;;;;;;;;;;2205618;59;1804;-66
2022/07/06 13:41:25;;;;;;;;;;;;;;;;;;2206031;59;2538;-67
2022/07/06 13:44:01;;;;;;;;;;;;;;;;;;2205846;59;2523;-67
2022/07/06 13:46:34;;;;;;;;;;;;;;;;;;2206238;59;1822;-67
2022/07/06 13:49:07;;;;;;;;;;;;;;;;;;2206078;59;1645;-66
2022/07/06 13:51:41;;;;;;;;;;;;;;;;;;2205706;67;1157;-65
2022/07/06 13:54:14;;;;;;;;;;;;;;;;;;2205922;59;1873;-66
2022/07/06 13:56:47;;;;;;;;;;;;;;;;;;2205494;59;2715;-68
2022/07/06 13:59:23;;;;;;;;;;;;;;;;;;2206290;59;1842;-67
2022/07/06 14:01:56;;;;;;;;;;;;;;;;;;2205518;59;2448;-65
2022/07/06 14:04:29;;;;;;;;;;;;;;;;;;2205121;59;2436;-67
2022/07/06 14:07:03;;;;;;;;;;;;;;;;;;2205310;59;2393;-66
2022/07/06 14:09:36;;;;;;;;;;;;;;;;;;2205537;59;2377;-66
2022/07/06 14:12:09;;;;;;;;;;;;;;;;;;2206207;59;1681;-67
2022/07/06 14:14:45;;;;;;;;;;;;;;;;;;2205307;59;2365;-67
2022/07/06 14:17:18;;;;;;;;;;;;;;;;;;2205736;59;2620;-68
2022/07/06 14:19:52;;;;;;;;;;;;;;;;;;2206304;59;1823;-67
2022/07/06 14:22:25;;;;;;;;;;;;;;;;;;2205718;59;1932;-67
2022/07/06 14:24:58;;;;;;;;;;;;;;;;;;2212189;59;1571;-67
2022/07/06 14:27:31;;;;;;;;;;;;;;;;;;2221057;59;2381;-67
2022/07/06 14:30:07;;;;;;;;;;;;;;;;;;2220679;59;1565;-67
2022/07/06 14:32:43;;;;;;;;;;;;;;;;;;2219631;59;1830;-67
2022/07/06 14:35:16;;;;;;;;;;;;;;;;;;2221488;59;1547;-67
2022/07/06 14:37:50;;;;;;;;;;;;;;;;;;2213165;59;2241;-66
2022/07/06 14:40:23;;;;;;;;;;;;;;;;;;2207032;67;1213;-65
2022/07/06 14:42:56;;;;;;;;;;;;;;;;;;2206492;59;2281;-67
2022/07/06 14:45:33;;;;;;;;;;;;;;;;;;2206190;59;2412;-67
2022/07/06 14:48:06;;;;;;;;;;;;;;;;;;2205820;59;1958;-67
2022/07/06 14:50:39;;;;;;;;;;;;;;;;;;2205512;59;2459;-65
2022/07/06 14:53:12;;;;;;;;;;;;;;;;;;2205830;59;1674;-66
2022/07/06 14:55:46;;;;;;;;;;;;;;;;;;2205312;59;1905;-65
2022/07/06 14:58:19;;;;;;;;;;;;;;;;;;2206003;59;2339;-67
2022/07/06 15:00:55;;;;;;;;;;;;;;;;;;2205417;59;2600;-66
2022/07/06 15:03:28;;;;;;;;;;;;;;;;;;2205672;59;2457;-67
2022/07/06 15:06:01;;;;;;;;;;;;;;;;;;2206062;59;1621;-63
2022/07/06 15:08:34;;;;;;;;;;;;;;;;;;2205542;59;1839;-67
2022/07/06 15:11:08;;;;;;;;;;;;;;;;;;2205556;59;2511;-67
2022/07/06 15:13:41;;;;;;;;;;;;;;;;;;2205070;59;2365;-68
2022/07/06 15:16:17;;;;;;;;;;;;;;;;;;2205066;59;2303;-67
2022/07/06 15:18:50;;;;;;;;;;;;;;;;;;2205640;59;1829;-66
2022/07/06 15:21:23;;;;;;;;;;;;;;;;;;2206026;59;1621;-67
2022/07/06 15:23:56;;;;;;;;;;;;;;;;;;2205452;59;2095;-67
2022/07/06 15:26:29;;;;;;;;;;;;;;;;;;2204972;59;2511;-66
2022/07/06 15:29:03;;;;;;;;;;;;;;;;;;2205429;59;2193;-66
2022/07/06 15:31:39;;;;;;;;;;;;;;;;;;2204601;59;2549;-67
2022/07/06 15:34:13;;;;;;;;;;;;;;;;;;2204074;59;2380;-67
2022/07/06 15:36:47;;;;;;;;;;;;;;;;;;2205123;59;1862;-67
2022/07/06 15:39:20;;;;;;;;;;;;;;;;;;2205191;59;1784;-67
2022/07/06 15:41:53;;;;;;;;;;;;;;;;;;2205184;59;1945;-67
2022/07/06 15:44:27;;;;;;;;;;;;;;;;;;2205627;59;1989;-67
2022/07/06 15:47:05;;;;;;;;;;;;;;;;;;2205761;59;2116;-67
2022/07/06 15:49:38;;;;;;;;;;;;;;;;;;2205429;67;1179;-66
2022/07/06 15:52:11;;;;;;;;;;;;;;;;;;2205454;67;1214;-67
2022/07/06 15:54:45;;;;;;;;;;;;;;;;;;2204832;59;2360;-68
2022/07/06 15:57:18;;;;;;;;;;;;;;;;;;2205363;59;2058;-66
2022/07/06 15:59:51;;;;;;;;;;;;;;;;;;2204610;59;2086;-67
2022/07/06 16:02:27;;;;;;;;;;;;;;;;;;2205152;59;1737;-66
2022/07/06 16:05:00;;;;;;;;;;;;;;;;;;2204510;59;2498;-67
2022/07/06 16:07:34;;;;;;;;;;;;;;;;;;2205318;59;2383;-65
2022/07/06 16:10:07;;;;;;;;;;;;;;;;;;2205353;59;1685;-67
2022/07/06 16:12:40;;;;;;;;;;;;;;;;;;2205790;59;1285;-67
2022/07/06 16:15:15;;;;;;;;;;;;;;;;;;2204732;59;2162;-68
2022/07/06 16:17:51;;;;;;;;;;;;;;;;;;2206159;59;1727;-68
2022/07/06 16:20:24;;;;;;;;;;;;;;;;;;2206143;59;2425;-67
2022/07/06 16:22:57;;;;;;;;;;;;;;;;;;2205605;59;2117;-67
2022/07/06 16:25:30;;;;;;;;;;;;;;;;;;2205919;59;2473;-67
2022/07/06 16:28:04;;;;;;;;;;;;;;;;;;2205431;59;2356;-67
2022/07/06 16:30:37;;;;;;;;;;;;;;;;;;2205033;59;2359;-67
2022/07/06 16:33:12;;;;;;;;;;;;;;;;;;2205634;59;1915;-67
2022/07/06 16:35:46;;;;;;;;;;;;;;;;;;2205014;59;2373;-67
2022/07/06 16:38:19;;;;;;;;;;;;;;;;;;2205164;59;1715;-67
2022/07/06 16:40:52;;;;;;;;;;;;;;;;;;2205961;59;1958;-67
2022/07/06 16:43:25;;;;;;;;;;;;;;;;;;2205431;59;1981;-68
2022/07/06 16:45:59;;;;;;;;;;;;;;;;;;2205803;59;2429;-66
2022/07/06 16:48:35;;;;;;;;;;;;;;;;;;2205718;67;1160;-67
2022/07/06 16:51:08;;;;;;;;;;;;;;;;;;2205939;67;1198;-67
2022/07/06 16:53:41;;;;;;;;;;;;;;;;;;2206591;59;1667;-67
2022/07/06 16:56:14;;;;;;;;;;;;;;;;;;2206161;59;1683;-66
2022/07/06 16:58:47;;;;;;;;;;;;;;;;;;2205669;59;2477;-66
2022/07/06 17:01:20;;;;;;;;;;;;;;;;;;2205379;59;2406;-67
2022/07/06 17:03:56;;;;;;;;;;;;;;;;;;2206144;59;1999;-67
2022/07/06 17:06:29;;;;;;;;;;;;;;;;;;2206196;67;1107;-67
2022/07/06 17:09:03;;;;;;;;;;;;;;;;;;2206601;67;1210;-65
2022/07/06 17:11:36;;;;;;;;;;;;;;;;;;2205617;59;1349;-66
2022/07/06 17:14:09;;;;;;;;;;;;;;;;;;2204791;59;1879;-66
2022/07/06 17:16:42;;;;;;;;;;;;;;;;;;2206006;59;1713;-67
2022/07/06 17:19:18;;;;;;;;;;;;;;;;;;2205418;59;2438;-66
2022/07/06 17:21:51;;;;;;;;;;;;;;;;;;2205851;59;2447;-67
2022/07/06 17:24:24;;;;;;;;;;;;;;;;;;2205928;59;2394;-68
2022/07/06 17:26:57;;;;;;;;;;;;;;;;;;2205758;59;2395;-68
2022/07/06 17:29:31;;;;;;;;;;;;;;;;;;2205389;59;2263;-67
2022/07/06 17:32:04;;;;;;;;;;;;;;;;;;2205673;59;2510;-67
2022/07/06 17:34:40;;;;;;;;;;;;;;;;;;2206069;59;1847;-67
2022/07/06 17:37:14;;;;;;;;;;;;;;;;;;2205789;59;1962;-68
2022/07/06 17:39:47;;;;;;;;;;;;;;;;;;2206477;67;1121;-68
2022/07/06 17:42:22;;;;;;;;;;;;;;;;;;2206354;59;2010;-67
2022/07/06 17:44:56;;;;;;;;;;;;;;;;;;2205730;59;2541;-67
2022/07/06 17:47:29;;;;;;;;;;;;;;;;;;2205840;59;1654;-67
2022/07/06 17:50:05;;;;;;;;;;;;;;;;;;2205076;59;1853;-68
2022/07/06 17:52:38;;;;;;;;;;;;;;;;;;2206952;59;1665;-67
2022/07/06 17:55:12;;;;;;;;;;;;;;;;;;2202598;59;1941;-67
2022/07/06 17:57:45;;;;;;;;;;;;;;;;;;2205179;59;1645;-68
2022/07/06 18:00:18;;;;;;;;;;;;;;;;;;2205151;59;2073;-66
2022/07/06 18:02:51;;;;;;;;;;;;;;;;;;2205752;59;1735;-66
2022/07/06 18:05:27;;;;;;;;;;;;;;;;;;2204610;59;2588;-66
2022/07/06 18:08:01;;;;;;;;;;;;;;;;;;2206106;59;1144;-67
2022/07/06 18:10:34;;;;;;;;;;;;;;;;;;2206627;59;1352;-67
2022/07/06 18:13:07;;;;;;;;;;;;;;;;;;2205848;59;1838;-67
2022/07/06 18:15:40;;;;;;;;;;;;;;;;;;2205801;59;1783;-68
2022/07/06 18:18:14;;;;;;;;;;;;;;;;;;2205353;59;1578;-67
2022/07/06 18:20:52;;;;;;;;;;;;;;;;;;2205097;59;1791;-67
2022/07/06 18:23:25;;;;;;;;;;;;;;;;;;2205785;59;1719;-66
2022/07/06 18:26:02;;;;;;;;;;;;;;;;;;2205901;59;1956;-67
2022/07/06 18:28:35;;;;;;;;;;;;;;;;;;2204893;59;1598;-68
2022/07/06 18:31:08;;;;;;;;;;;;;;;;;;2205523;59;1915;-68
2022/07/06 18:33:41;;;;;;;;;;;;;;;;;;2205498;59;1875;-65
2022/07/06 18:36:17;;;;;;;;;;;;;;;;;;2205076;59;2185;-67
2022/07/06 18:38:50;;;;;;;;;;;;;;;;;;2204881;59;2424;-67
2022/07/06 18:41:24;;;;;;;;;;;;;;;;;;2205824;59;1978;-67
2022/07/06 18:43:57;;;;;;;;;;;;;;;;;;2205776;59;1983;-67
2022/07/06 18:46:30;;;;;;;;;;;;;;;;;;2206406;59;1861;-68
2022/07/06 18:49:04;;;;;;;;;;;;;;;;;;2205415;59;2391;-67
2022/07/06 18:51:41;;;;;;;;;;;;;;;;;;2205648;67;1244;-65
2022/07/06 18:54:14;;;;;;;;;;;;;;;;;;2206342;59;1862;-67
2022/07/06 18:56:47;;;;;;;;;;;;;;;;;;2205016;59;1808;-66
2022/07/06 18:59:20;;;;;;;;;;;;;;;;;;2206054;59;2514;-68
2022/07/06 19:01:54;;;;;;;;;;;;;;;;;;2205084;59;2480;-67
2022/07/06 19:04:27;;;;;;;;;;;;;;;;;;2205449;59;1941;-68
2022/07/06 19:07:03;;;;;;;;;;;;;;;;;;2204889;59;2526;-67
2022/07/06 19:09:36;;;;;;;;;;;;;;;;;;2204953;59;1869;-67
2022/07/06 19:12:09;;;;;;;;;;;;;;;;;;2205228;59;2465;-67
2022/07/06 19:14:43;;;;;;;;;;;;;;;;;;2205145;59;2210;-67
2022/07/06 19:17:16;;;;;;;;;;;;;;;;;;2206206;59;1654;-67
2022/07/06 19:19:49;;;;;;;;;;;;;;;;;;2205103;59;2654;-67
2022/07/06 19:22:25;;;;;;;;;;;;;;;;;;2205224;59;1623;-66
2022/07/06 19:24:58;;;;;;;;;;;;;;;;;;2206197;59;1932;-66
2022/07/06 19:27:31;;;;;;;;;;;;;;;;;;2204423;59;2417;-67
2022/07/06 19:30:05;;;;;;;;;;;;;;;;;;2205192;59;2399;-68
2022/07/06 19:32:39;;;;;;;;;;;;;;;;;;2204622;59;2386;-66
2022/07/06 19:35:12;;;;;;;;;;;;;;;;;;2205684;59;2493;-67
2022/07/06 19:37:48;;;;;;;;;;;;;;;;;;2205942;59;1623;-67
2022/07/06 19:40:21;;;;;;;;;;;;;;;;;;2205507;59;2483;-66
2022/07/06 19:42:54;;;;;;;;;;;;;;;;;;2206124;59;1931;-66
2022/07/06 19:45:28;;;;;;;;;;;;;;;;;;2205580;59;2415;-66
2022/07/06 19:48:01;;;;;;;;;;;;;;;;;;2204834;59;1986;-68
2022/07/06 19:50:34;;;;;;;;;;;;;;;;;;2205306;59;1827;-67
2022/07/06 19:53:10;;;;;;;;;;;;;;;;;;2205529;59;2412;-68
2022/07/06 19:55:43;;;;;;;;;;;;;;;;;;2204888;59;1812;-67
2022/07/06 19:58:17;;;;;;;;;;;;;;;;;;2205067;59;1728;-67
2022/07/06 20:00:52;;;;;;;;;;;;;;;;;;2204714;59;1590;-67
2022/07/06 20:03:27;;;;;;;;;;;;;;;;;;2205105;59;1652;-67
2022/07/06 20:06:01;;;;;;;;;;;;;;;;;;2204750;59;1923;-67
2022/07/06 20:08:37;;;;;;;;;;;;;;;;;;2204464;59;2428;-67
2022/07/06 20:11:10;;;;;;;;;;;;;;;;;;2205901;59;1765;-66
2022/07/06 20:13:43;;;;;;;;;;;;;;;;;;2205086;59;1816;-66
2022/07/06 20:16:17;;;;;;;;;;;;;;;;;;2205762;59;1560;-66
2022/07/06 20:18:50;;;;;;;;;;;;;;;;;;2204451;59;1974;-65
2022/07/06 20:21:23;;;;;;;;;;;;;;;;;;2205464;59;1274;-67
2022/07/06 20:23:59;;;;;;;;;;;;;;;;;;2206079;59;1557;-66